Time;durP1;ratioP1;P1;durP2;ratioP2;P2;SDS_P1;SDS_P2;PMS_P1;PMS_P2;Temp;Humidity;BMP_temperature;BMP_pressure;BME280_temperature;BME280_humidity;BME280_pressure;Samples;Min_cycle;Max_cycle;Signal;HPM_P1;HPM_P2
2022/04/02 00:00:07;;;;;;;4.50;1.50;;;0.50;91.40;;;;;;5262212;28;20423;-51
2022/04/02 00:02:38;;;;;;;4.70;2.60;;;0.50;91.80;;;;;;5248097;28;20181;-49
2022/04/02 00:05:10;;;;;;;2.10;1.77;;;0.40;92.50;;;;;;5260274;28;20469;-48
2022/04/02 00:07:40;;;;;;;4.13;1.90;;;0.40;93.20;;;;;;5257254;28;20463;-49
2022/04/02 00:10:11;;;;;;;2.80;2.00;;;0.40;93.80;;;;;;5268636;28;20443;-52
2022/04/02 00:12:43;;;;;;;3.47;2.53;;;0.40;94.10;;;;;;5265737;28;20324;-50
2022/04/02 00:15:14;;;;;;;3.33;1.80;;;0.40;95.10;;;;;;5264358;28;20424;-50
2022/04/02 00:17:45;;;;;;;4.10;1.80;;;0.40;95.30;;;;;;5262648;28;20454;-50
2022/04/02 00:20:17;;;;;;;2.10;1.73;;;0.40;95.50;;;;;;5268672;28;20470;-51
2022/04/02 00:25:37;;;;;;;1.70;1.60;;;0.40;96.70;;;;;;5260408;28;20882;-50
2022/04/02 00:28:08;;;;;;;9.27;2.90;;;0.20;97.40;;;;;;5250715;28;20496;-51
2022/04/02 00:30:40;;;;;;;4.63;1.93;;;0.20;97.80;;;;;;5269624;28;20181;-49
2022/04/02 00:33:11;;;;;;;1.73;1.63;;;0.20;98.50;;;;;;5269920;28;20176;-47
2022/04/02 00:35:42;;;;;;;5.23;1.70;;;0.10;99.10;;;;;;5269088;28;20432;-49
2022/04/02 00:38:12;;;;;;;2.23;1.83;;;0.20;99.60;;;;;;5257054;28;20205;-50
2022/04/02 00:40:43;;;;;;;2.73;1.70;;;0.10;99.90;;;;;;5262489;28;20226;-48
2022/04/02 00:43:22;;;;;;;6.73;2.07;;;0.10;99.90;;;;;;5265690;28;20649;-49
2022/04/02 00:45:56;;;;;;;3.23;1.80;;;0.00;99.90;;;;;;5266544;28;20198;-48
2022/04/02 00:48:27;;;;;;;2.13;1.70;;;0.00;99.90;;;;;;5259153;28;20450;-49
2022/04/02 00:51:00;;;;;;;2.00;1.83;;;0.00;99.90;;;;;;5266238;28;20431;-50
2022/04/02 00:53:37;;;;;;;1.73;1.63;;;0.00;99.90;;;;;;5289175;28;20434;-48
2022/04/02 00:56:08;;;;;;;3.20;1.97;;;0.00;99.90;;;;;;5258773;28;20422;-50
2022/04/02 00:58:39;;;;;;;4.30;2.30;;;0.00;99.90;;;;;;5264186;28;20459;-49
2022/04/02 01:01:09;;;;;;;5.73;1.83;;;0.00;99.90;;;;;;5266613;28;20257;-50
2022/04/02 01:03:40;;;;;;;6.90;2.20;;;-0.10;99.90;;;;;;5254687;28;20269;-50
2022/04/02 01:06:12;;;;;;;8.07;1.70;;;-0.10;99.90;;;;;;5260994;28;20622;-49
2022/04/02 01:08:42;;;;;;;12.00;2.40;;;-0.10;99.90;;;;;;5272300;28;20201;-49
2022/04/02 01:11:13;;;;;;;4.27;2.03;;;-0.10;99.90;;;;;;5272929;28;20945;-48
2022/04/02 01:13:44;;;;;;;7.13;2.20;;;-0.10;99.90;;;;;;5267956;28;20189;-49
2022/04/02 01:16:15;;;;;;;3.60;2.30;;;-0.10;99.90;;;;;;5264811;28;20522;-50
2022/04/02 01:18:45;;;;;;;2.43;2.00;;;-0.10;99.90;;;;;;5263363;28;20685;-48
2022/04/02 01:21:16;;;;;;;1.70;1.60;;;-0.10;99.90;;;;;;5267680;28;20532;-50
2022/04/02 01:23:47;;;;;;;2.37;1.77;;;-0.10;99.90;;;;;;5267287;28;20711;-49
2022/04/02 01:26:19;;;;;;;2.43;2.23;;;-0.10;99.90;;;;;;5275081;28;20193;-50
2022/04/02 01:28:53;;;;;;;4.67;2.33;;;-0.10;99.90;;;;;;5267226;28;20217;-48
2022/04/02 01:31:26;;;;;;;4.83;1.77;;;-0.20;99.90;;;;;;5262158;28;20431;-51
2022/04/02 01:33:56;;;;;;;1.77;1.60;;;-0.10;99.90;;;;;;5259645;28;20435;-48
2022/04/02 01:36:27;;;;;;;2.20;1.70;;;-0.20;99.90;;;;;;5261805;28;20427;-49
2022/04/02 01:38:57;;;;;;;2.90;1.97;;;-0.10;99.90;;;;;;5264869;28;20613;-49
2022/04/02 01:41:28;;;;;;;2.93;1.87;;;-0.20;99.90;;;;;;5267260;28;20220;-48
2022/04/02 01:43:58;;;;;;;4.10;1.80;;;-0.20;99.90;;;;;;5279195;28;20192;-50
2022/04/02 01:46:29;;;;;;;2.23;2.03;;;-0.20;99.90;;;;;;5255998;28;20198;-49
2022/04/02 01:49:00;;;;;;;5.93;1.80;;;-0.20;99.90;;;;;;5263269;28;20205;-49
2022/04/02 01:51:30;;;;;;;4.53;1.80;;;-0.20;99.90;;;;;;5258236;28;20723;-49
2022/04/02 01:54:01;;;;;;;2.47;1.53;;;-0.20;99.90;;;;;;5263174;28;20206;-51
2022/04/02 01:56:31;;;;;;;1.83;1.73;;;-0.10;99.90;;;;;;5261389;28;20272;-49
2022/04/02 01:59:02;;;;;;;4.50;1.40;;;-0.20;99.90;;;;;;5266270;28;20597;-50
2022/04/02 02:01:32;;;;;;;2.20;1.53;;;-0.10;99.90;;;;;;5267207;28;20186;-50
2022/04/02 02:04:03;;;;;;;1.47;1.37;;;-0.10;99.90;;;;;;5263090;28;20262;-50
2022/04/02 02:06:38;;;;;;;5.97;1.73;;;-0.20;99.90;;;;;;5262174;28;20284;-49
2022/04/02 02:09:09;;;;;;;1.77;1.67;;;-0.20;99.90;;;;;;5262318;28;20281;-50
2022/04/02 02:11:41;;;;;;;3.40;1.60;;;-0.10;99.90;;;;;;5268491;28;20495;-48
2022/04/02 02:14:11;;;;;;;1.90;1.80;;;-0.10;99.90;;;;;;5266981;28;20323;-49
2022/04/02 02:16:42;;;;;;;5.40;2.33;;;0.00;99.90;;;;;;5268857;28;20530;-50
2022/04/02 02:19:12;;;;;;;5.80;2.20;;;-0.10;99.90;;;;;;5268299;28;20204;-50
2022/04/02 02:21:43;;;;;;;3.23;1.97;;;-0.10;99.90;;;;;;5252119;28;20272;-47
2022/04/02 02:24:13;;;;;;;4.43;1.90;;;-0.10;99.90;;;;;;5265623;28;20697;-51
2022/04/02 02:26:44;;;;;;;1.87;1.77;;;-0.10;99.90;;;;;;5257934;28;20351;-50
2022/04/02 02:29:14;;;;;;;4.00;1.70;;;0.00;99.90;;;;;;5261828;28;20217;-49
2022/04/02 02:31:45;;;;;;;4.17;2.30;;;0.00;99.90;;;;;;5265101;28;20185;-48
2022/04/02 02:37:26;;;;;;;3.33;1.60;;;0.00;99.90;;;;;;5225582;28;20841;-49
2022/04/02 02:39:56;;;;;;;2.53;1.50;;;0.10;99.90;;;;;;5206988;28;20429;-48
2022/04/02 02:42:27;;;;;;;1.30;1.30;;;0.20;99.90;;;;;;5233663;28;20520;-49
2022/04/02 02:44:58;;;;;;;4.73;1.37;;;0.10;99.90;;;;;;5264069;28;22415;-49
2022/04/02 02:47:28;;;;;;;2.83;1.63;;;0.20;99.90;;;;;;5269976;28;20471;-49
2022/04/02 02:50:00;;;;;;;4.33;1.70;;;0.20;99.90;;;;;;5264949;28;20177;-48
2022/04/02 02:52:31;;;;;;;6.27;2.23;;;0.20;99.90;;;;;;5263151;28;20268;-48
2022/04/02 02:55:02;;;;;;;1.93;1.83;;;0.20;99.90;;;;;;5260169;28;21042;-51
2022/04/02 02:57:40;;;;;;;4.43;1.63;;;0.20;99.90;;;;;;5268798;28;20204;-48
2022/04/02 03:00:12;;;;;;;2.10;1.53;;;0.20;99.90;;;;;;5247753;28;20517;-50
2022/04/02 03:02:43;;;;;;;4.20;1.93;;;0.30;99.90;;;;;;5249983;28;20723;-49
2022/04/02 03:05:16;;;;;;;2.43;1.60;;;0.20;99.90;;;;;;5267876;28;20427;-48
2022/04/02 03:07:48;;;;;;;3.43;1.50;;;0.20;99.90;;;;;;5266754;28;20685;-49
2022/04/02 03:10:22;;;;;;;2.47;1.37;;;0.20;99.90;;;;;;5247654;28;20436;-51
2022/04/02 03:12:55;;;;;;;2.77;1.47;;;0.20;99.90;;;;;;5262107;28;21022;-51
2022/04/02 03:15:26;;;;;;;6.77;1.90;;;0.20;99.90;;;;;;5248264;28;20506;-50
2022/04/02 03:18:05;;;;;;;4.00;1.73;;;0.10;99.90;;;;;;5261154;28;20450;-49
2022/04/02 03:20:37;;;;;;;1.93;1.83;;;0.20;99.90;;;;;;5256987;28;20518;-51
2022/04/02 03:23:09;;;;;;;1.37;1.37;;;0.10;99.90;;;;;;5249294;28;20786;-50
2022/04/02 03:25:39;;;;;;;1.93;1.20;;;0.10;99.90;;;;;;5253728;28;20456;-51
2022/04/02 03:28:10;;;;;;;2.93;1.77;;;0.00;99.90;;;;;;5266127;28;20474;-52
2022/04/02 03:30:41;;;;;;;1.87;1.77;;;0.00;99.90;;;;;;5251512;28;20225;-51
2022/04/02 03:33:13;;;;;;;2.93;1.90;;;0.10;99.90;;;;;;5259096;28;20451;-50
2022/04/02 03:35:44;;;;;;;1.47;1.40;;;0.10;99.90;;;;;;5254094;28;20209;-51
2022/04/02 03:38:15;;;;;;;8.17;1.47;;;0.00;99.90;;;;;;5265622;28;20483;-50
2022/04/02 03:40:46;;;;;;;1.40;1.30;;;0.00;99.90;;;;;;5254918;28;20425;-49
2022/04/02 03:43:16;;;;;;;4.47;2.50;;;-0.10;99.90;;;;;;5259306;28;20299;-51
2022/04/02 03:45:47;;;;;;;1.80;1.70;;;-0.10;99.90;;;;;;5264803;28;20207;-51
2022/04/02 03:48:17;;;;;;;3.50;1.97;;;-0.10;99.90;;;;;;5267936;28;20689;-51
2022/04/02 03:50:48;;;;;;;1.77;1.57;;;-0.10;99.90;;;;;;5267047;28;20209;-50
2022/04/02 03:53:18;;;;;;;2.87;1.57;;;-0.20;99.90;;;;;;5254431;28;20230;-50
2022/04/02 03:55:49;;;;;;;2.20;1.60;;;-0.20;99.90;;;;;;5265187;28;20189;-51
2022/04/02 03:58:20;;;;;;;3.63;1.73;;;-0.20;99.90;;;;;;5257031;28;20198;-52
2022/04/02 04:00:52;;;;;;;1.87;1.73;;;-0.10;99.90;;;;;;5260129;28;20922;-52
2022/04/02 04:03:23;;;;;;;1.60;1.50;;;-0.20;99.90;;;;;;5252236;28;20720;-51
2022/04/02 04:05:53;;;;;;;2.57;1.90;;;-0.20;99.90;;;;;;5267549;28;20436;-50
2022/04/02 04:08:24;;;;;;;5.83;1.80;;;-0.20;99.90;;;;;;5260885;28;20204;-50
2022/04/02 04:10:54;;;;;;;1.87;1.77;;;-0.20;99.90;;;;;;5264402;28;20182;-52
2022/04/02 04:13:25;;;;;;;4.07;1.70;;;-0.30;99.90;;;;;;5257520;28;20690;-50
2022/04/02 04:15:55;;;;;;;8.60;1.60;;;-0.20;99.90;;;;;;5260242;28;20293;-50
2022/04/02 04:18:26;;;;;;;3.10;1.90;;;-0.30;99.90;;;;;;5262647;28;20274;-51
2022/04/02 04:20:57;;;;;;;4.23;1.87;;;-0.30;99.90;;;;;;5258393;28;20177;-49
2022/04/02 04:23:28;;;;;;;1.80;1.43;;;-0.30;99.90;;;;;;5265206;28;20404;-49
2022/04/02 04:25:59;;;;;;;3.07;1.57;;;-0.20;99.90;;;;;;5258672;28;20462;-49
2022/04/02 04:28:29;;;;;;;4.30;1.57;;;-0.20;99.90;;;;;;5265019;28;20217;-49
2022/04/02 04:31:01;;;;;;;1.90;1.80;;;-0.20;99.90;;;;;;5259593;28;20518;-50
2022/04/02 04:33:32;;;;;;;1.20;1.20;;;-0.20;99.90;;;;;;5260845;28;20221;-50
2022/04/02 04:36:03;;;;;;;1.50;1.40;;;-0.10;99.90;;;;;;5256209;28;21109;-48
2022/04/02 04:38:33;;;;;;;1.80;1.70;;;-0.10;99.90;;;;;;5256314;28;20206;-48
2022/04/02 04:41:04;;;;;;;2.30;1.57;;;-0.10;99.90;;;;;;5259067;28;20926;-47
2022/04/02 04:43:35;;;;;;;2.57;1.43;;;-0.10;99.90;;;;;;5266440;28;20742;-49
2022/04/02 04:46:05;;;;;;;1.97;1.73;;;-0.10;99.90;;;;;;5258045;28;20459;-51
2022/04/02 04:48:36;;;;;;;1.53;1.10;;;-0.10;99.90;;;;;;5262725;28;20251;-50
2022/04/02 04:51:07;;;;;;;1.40;1.30;;;-0.10;99.90;;;;;;5263868;28;20217;-49
2022/04/02 04:53:37;;;;;;;2.23;1.70;;;-0.10;99.90;;;;;;5251462;28;20174;-50
2022/04/02 04:56:08;;;;;;;1.73;1.50;;;0.00;99.90;;;;;;5248241;28;20231;-49
2022/04/02 04:58:39;;;;;;;2.43;1.73;;;0.00;99.90;;;;;;5261473;28;20300;-49
2022/04/02 05:01:09;;;;;;;1.93;1.80;;;0.00;99.90;;;;;;5254628;28;20186;-50
2022/04/02 05:03:40;;;;;;;1.10;1.10;;;0.10;99.90;;;;;;5248821;28;20190;-48
2022/04/02 05:06:12;;;;;;;2.13;1.70;;;0.20;99.90;;;;;;5259435;28;20298;-48
2022/04/02 05:08:42;;;;;;;1.47;1.37;;;0.20;99.90;;;;;;5265174;28;20246;-49
2022/04/02 05:11:13;;;;;;;1.10;1.10;;;0.40;99.90;;;;;;5256420;28;20436;-48
2022/04/02 05:13:44;;;;;;;2.80;1.80;;;0.50;99.90;;;;;;5260464;28;20216;-48
2022/04/02 05:16:14;;;;;;;1.10;1.10;;;0.50;99.90;;;;;;5253004;28;20556;-48
2022/04/02 05:18:46;;;;;;;3.17;1.90;;;0.60;99.90;;;;;;5255331;28;20202;-48
2022/04/02 05:21:17;;;;;;;4.00;1.87;;;0.70;99.90;;;;;;5260793;28;20178;-49
2022/04/02 05:23:47;;;;;;;7.10;1.63;;;0.90;99.90;;;;;;5251066;28;20428;-48
2022/04/02 05:26:19;;;;;;;1.77;1.67;;;0.90;99.90;;;;;;5267997;28;20237;-48
2022/04/02 05:28:49;;;;;;;1.83;1.70;;;1.00;99.90;;;;;;5268234;28;20217;-49
2022/04/02 05:31:20;;;;;;;1.70;1.60;;;1.10;99.90;;;;;;5266990;28;20450;-49
2022/04/02 05:33:50;;;;;;;2.93;1.60;;;1.20;99.90;;;;;;5268521;28;20324;-48
2022/04/02 05:36:22;;;;;;;3.80;1.53;;;1.50;99.90;;;;;;5268186;28;20576;-48
2022/04/02 05:38:52;;;;;;;4.93;1.73;;;1.70;99.90;;;;;;5267943;28;20203;-49
2022/04/02 05:41:23;;;;;;;1.60;1.50;;;1.80;99.90;;;;;;5254527;28;20951;-48
2022/04/02 05:43:53;;;;;;;3.70;1.53;;;2.00;99.90;;;;;;5258489;28;20241;-49
2022/04/02 05:46:24;;;;;;;3.37;1.93;;;2.00;99.90;;;;;;5260944;28;20206;-47
2022/04/02 05:48:54;;;;;;;2.80;1.40;;;2.10;99.90;;;;;;5255082;28;20255;-49
2022/04/02 05:51:26;;;;;;;4.17;2.10;;;2.10;99.90;;;;;;5249689;28;20185;-48
2022/04/02 05:53:57;;;;;;;1.90;1.80;;;2.10;99.90;;;;;;5251234;28;20228;-49
2022/04/02 05:56:27;;;;;;;3.60;2.30;;;2.20;99.90;;;;;;5256625;28;20431;-48
2022/04/02 05:59:01;;;;;;;3.30;2.33;;;2.30;99.90;;;;;;5238770;28;20459;-48
2022/04/02 06:01:33;;;;;;;2.60;1.40;;;2.40;99.90;;;;;;5260856;28;20179;-49
2022/04/02 06:04:04;;;;;;;3.37;2.60;;;2.30;99.90;;;;;;5260709;28;20440;-47
2022/04/02 06:06:35;;;;;;;1.30;1.30;;;2.30;99.90;;;;;;5252788;28;20470;-49
2022/04/02 06:09:06;;;;;;;3.33;1.73;;;2.40;99.90;;;;;;5255293;28;20284;-49
2022/04/02 06:11:36;;;;;;;2.20;2.03;;;2.20;99.90;;;;;;5250435;28;20515;-47
2022/04/02 06:14:07;;;;;;;2.63;1.70;;;2.30;99.90;;;;;;5250130;28;20212;-49
2022/04/02 06:16:37;;;;;;;3.23;1.50;;;3.00;99.90;;;;;;5261988;28;20189;-50
2022/04/02 06:19:08;;;;;;;4.83;1.77;;;3.80;99.90;;;;;;5249055;28;20267;-49
2022/04/02 06:21:38;;;;;;;2.07;1.83;;;5.00;93.70;;;;;;5249726;28;20187;-48
2022/04/02 06:24:09;;;;;;;4.93;1.13;;;6.50;80.50;;;;;;5252035;28;20646;-47
2022/04/02 06:26:39;;;;;;;2.30;1.50;;;7.80;60.00;;;;;;5251210;28;20206;-49
2022/04/02 06:29:10;;;;;;;2.10;1.30;;;8.70;53.70;;;;;;5249376;28;20228;-47
2022/04/02 06:31:40;;;;;;;6.20;1.77;;;9.70;50.60;;;;;;5259893;28;20596;-49
2022/04/02 06:34:11;;;;;;;3.00;1.43;;;10.60;44.30;;;;;;5259919;28;20231;-48
2022/04/02 06:36:42;;;;;;;3.13;1.40;;;11.00;42.40;;;;;;5254040;28;20292;-47
2022/04/02 06:39:12;;;;;;;1.00;1.00;;;11.10;41.20;;;;;;5262011;28;20206;-48
2022/04/02 06:41:43;;;;;;;2.07;1.47;;;11.40;41.30;;;;;;5263970;28;20225;-49
2022/04/02 06:44:14;;;;;;;1.50;1.40;;;11.80;39.40;;;;;;5254748;28;20599;-50
2022/04/02 06:46:44;;;;;;;2.93;1.40;;;11.40;38.90;;;;;;5261161;28;20211;-47
2022/04/02 06:49:15;;;;;;;4.77;1.50;;;11.40;39.80;;;;;;5237920;28;20194;-47
2022/04/02 06:51:45;;;;;;;2.03;1.33;;;11.00;39.50;;;;;;5256114;28;20205;-49
2022/04/02 06:54:16;;;;;;;1.43;1.37;;;10.90;40.00;;;;;;5258916;28;20178;-50
2022/04/02 06:56:48;;;;;;;5.70;1.90;;;10.60;40.00;;;;;;5250870;28;20273;-49
2022/04/02 06:59:19;;;;;;;4.57;1.77;;;9.80;42.00;;;;;;5253466;28;20705;-49
2022/04/02 07:01:49;;;;;;;3.13;1.77;;;9.20;44.00;;;;;;5260000;28;20459;-48
2022/04/02 07:04:20;;;;;;;1.60;1.50;;;8.60;44.90;;;;;;5262281;28;20260;-48
2022/04/02 07:06:51;;;;;;;2.13;1.23;;;7.70;46.40;;;;;;5258517;28;20195;-49
2022/04/02 07:09:22;;;;;;;6.80;2.10;;;7.00;48.30;;;;;;5256543;28;20209;-56
2022/04/02 07:11:52;;;;;;;9.20;2.40;;;6.70;49.90;;;;;;5254456;28;20182;-49
2022/04/02 07:14:23;;;;;;;1.53;1.40;;;6.50;50.80;;;;;;5263896;28;20953;-49
2022/04/02 07:16:54;;;;;;;4.23;1.80;;;6.30;51.70;;;;;;5256104;28;20210;-48
2022/04/02 07:19:25;;;;;;;3.23;2.00;;;6.10;52.30;;;;;;5249301;28;20202;-50
2022/04/02 07:21:56;;;;;;;2.40;1.80;;;5.70;53.70;;;;;;5249501;28;20433;-49
2022/04/02 07:24:28;;;;;;;4.27;1.93;;;5.20;55.70;;;;;;5249415;28;20416;-48
2022/04/02 07:26:59;;;;;;;2.40;1.47;;;4.90;58.80;;;;;;5249169;28;20463;-49
2022/04/02 07:29:32;;;;;;;4.77;1.43;;;4.80;61.40;;;;;;5250753;28;20467;-49
2022/04/02 07:32:04;;;;;;;5.30;2.17;;;4.70;63.60;;;;;;5248306;28;20437;-50
2022/04/02 07:34:35;;;;;;;6.23;2.07;;;4.40;67.10;;;;;;5251177;28;20426;-50
2022/04/02 07:37:37;;;;;;;1.73;1.63;;;4.20;71.80;;;;;;5248636;28;20487;-50
2022/04/02 07:40:30;;;;;;;2.23;1.20;;;4.00;76.10;;;;;;5259542;28;20569;-49
2022/04/02 07:43:04;;;;;;;2.93;1.60;;;3.80;80.10;;;;;;5248112;28;20428;-49
2022/04/02 07:45:40;;;;;;;1.77;1.63;;;3.80;84.10;;;;;;5254083;28;20481;-48
2022/04/02 07:48:11;;;;;;;7.20;1.33;;;3.80;87.70;;;;;;5258191;28;20542;-50
2022/04/02 07:50:44;;;;;;;1.53;1.43;;;3.60;87.80;;;;;;5246670;28;20535;-51
2022/04/02 07:53:21;;;;;;;1.73;1.63;;;3.60;86.80;;;;;;5249225;28;20428;-51
2022/04/02 07:55:57;;;;;;;4.83;1.50;;;3.40;81.80;;;;;;5257016;28;20460;-48
2022/04/02 07:58:32;;;;;;;4.07;1.60;;;3.40;84.10;;;;;;5253809;28;20459;-50
2022/04/02 08:01:04;;;;;;;1.90;1.80;;;3.50;85.20;;;;;;5247721;28;20519;-49
2022/04/02 08:03:36;;;;;;;2.53;1.33;;;3.60;84.60;;;;;;5251849;28;20460;-49
2022/04/02 08:06:07;;;;;;;1.53;1.43;;;3.60;78.30;;;;;;5247205;28;20486;-50
2022/04/02 08:08:38;;;;;;;1.43;1.30;;;3.50;78.70;;;;;;5248197;28;20456;-50
2022/04/02 08:11:10;;;;;;;3.57;1.87;;;3.50;75.70;;;;;;5255118;28;20805;-49
2022/04/02 08:13:43;;;;;;;2.57;1.30;;;3.50;73.20;;;;;;5257043;28;20904;-49
2022/04/02 08:16:16;;;;;;;2.70;1.20;;;3.70;72.00;;;;;;5254814;28;20981;-49
2022/04/02 08:18:47;;;;;;;2.20;1.00;;;3.80;69.20;;;;;;5230648;28;20456;-50
2022/04/02 08:21:18;;;;;;;3.90;1.40;;;3.70;65.20;;;;;;5252730;28;20421;-49
2022/04/02 08:23:49;;;;;;;2.03;1.70;;;3.70;64.60;;;;;;5259639;28;20443;-48
2022/04/02 08:27:16;;;;;;;0.97;0.97;;;3.80;63.40;;;;;;5248128;28;20559;-49
2022/04/02 08:30:07;;;;;;;4.70;1.30;;;3.90;59.00;;;;;;5241549;28;20202;-49
2022/04/02 08:33:04;;;;;;;0.90;0.90;;;3.90;55.10;;;;;;5257467;28;20462;-50
2022/04/02 08:35:40;;;;;;;6.87;1.50;;;3.90;53.10;;;;;;5247434;28;20586;-49
2022/04/02 08:38:19;;;;;;;3.90;1.10;;;3.90;51.50;;;;;;5247907;28;20881;-50
2022/04/02 08:41:29;;;;;;;6.37;0.90;;;3.90;50.60;;;;;;5249569;28;20794;-51
2022/04/02 08:44:21;;;;;;;1.10;1.00;;;3.90;49.70;;;;;;5248840;28;20831;-49
2022/04/02 08:47:12;;;;;;;0.87;0.87;;;4.00;49.30;;;;;;5252145;28;20460;-47
2022/04/02 08:50:02;;;;;;;1.43;1.00;;;4.30;48.80;;;;;;5261595;28;20536;-49
2022/04/02 08:53:00;;;;;;;4.70;1.63;;;4.40;47.60;;;;;;5261639;28;20431;-48
2022/04/02 08:55:34;;;;;;;2.33;2.17;;;4.20;47.40;;;;;;5263104;28;20432;-50
2022/04/02 08:58:24;;;;;;;2.47;1.30;;;4.30;47.80;;;;;;5251184;28;20484;-50
2022/04/02 09:01:09;;;;;;;4.60;2.07;;;4.60;47.40;;;;;;5250949;28;20552;-50
2022/04/02 09:04:08;;;;;;;0.90;0.90;;;4.70;46.70;;;;;;5264792;28;20419;-50
2022/04/02 09:07:05;;;;;;;1.10;1.10;;;4.80;45.70;;;;;;5254208;28;20467;-50
2022/04/02 09:10:17;;;;;;;5.83;1.77;;;4.80;45.50;;;;;;5252654;28;20424;-49
2022/04/02 09:13:21;;;;;;;1.40;1.40;;;4.70;45.70;;;;;;5225079;28;20526;-48
2022/04/02 09:16:01;;;;;;;5.13;1.50;;;4.70;45.30;;;;;;5263242;28;20419;-49
2022/04/02 09:18:49;;;;;;;1.83;1.57;;;5.00;45.10;;;;;;5250707;28;20438;-51
2022/04/02 09:21:29;;;;;;;2.40;1.40;;;5.10;44.20;;;;;;5261494;28;20505;-51
2022/04/02 09:24:47;;;;;;;2.40;0.97;;;5.40;43.30;;;;;;5258449;28;20507;-49
2022/04/02 09:27:39;;;;;;;1.93;1.77;;;5.90;43.40;;;;;;5251445;28;20465;-48
2022/04/02 09:30:41;;;;;;;5.03;1.33;;;6.30;41.70;;;;;;5260942;28;20469;-49
2022/04/02 09:33:45;;;;;;;1.47;1.37;;;6.30;41.10;;;;;;5256119;28;20424;-49
2022/04/02 09:36:30;;;;;;;1.77;1.43;;;6.10;41.30;;;;;;5259064;28;20444;-47
2022/04/02 09:39:30;;;;;;;1.53;1.20;;;5.60;42.20;;;;;;5254170;28;20466;-49
2022/04/02 09:42:38;;;;;;;9.70;1.63;;;5.30;43.10;;;;;;5182320;28;20464;-50
2022/04/02 09:45:13;;;;;;;1.73;1.10;;;5.30;43.00;;;;;;5247658;28;20435;-51
2022/04/02 09:47:43;;;;;;;2.23;1.57;;;5.60;43.10;;;;;;5259273;28;20472;-48
2022/04/02 09:50:19;;;;;;;2.10;1.70;;;5.90;42.70;;;;;;5249666;28;20436;-48
2022/04/02 09:53:12;;;;;;;3.00;1.40;;;6.20;41.90;;;;;;5254480;28;20202;-49
2022/04/02 09:55:56;;;;;;;2.70;1.40;;;6.30;41.40;;;;;;5255663;28;20770;-49
2022/04/02 09:58:46;;;;;;;4.57;1.70;;;6.20;41.10;;;;;;5253320;28;20925;-49
2022/04/02 10:01:29;;;;;;;2.10;1.60;;;6.30;41.10;;;;;;5261031;28;20495;-50
2022/04/02 10:04:40;;;;;;;3.10;1.50;;;6.10;40.30;;;;;;5252277;28;20441;-49
2022/04/02 10:07:48;;;;;;;1.17;1.07;;;6.20;40.70;;;;;;5255373;28;21058;-51
2022/04/02 10:10:26;;;;;;;2.20;2.00;;;6.10;40.40;;;;;;5225050;28;20939;-49
2022/04/02 10:12:57;;;;;;;1.50;1.33;;;6.00;40.00;;;;;;5253063;28;20479;-49
2022/04/02 10:15:30;;;;;;;1.83;1.50;;;6.00;40.50;;;;;;5250303;28;20827;-48
2022/04/02 10:18:03;;;;;;;1.57;1.47;;;6.10;40.40;;;;;;5253698;28;20452;-48
2022/04/02 10:20:36;;;;;;;1.00;1.00;;;6.40;40.50;;;;;;5253430;28;20439;-48
2022/04/02 10:23:16;;;;;;;6.00;1.40;;;6.30;40.60;;;;;;5260020;28;20954;-49
2022/04/02 10:26:07;;;;;;;1.53;1.40;;;6.30;40.30;;;;;;5259154;28;20486;-49
2022/04/02 10:29:02;;;;;;;2.73;1.20;;;6.00;39.30;;;;;;5255718;28;20567;-49
2022/04/02 10:31:47;;;;;;;1.57;1.47;;;5.60;39.80;;;;;;5250945;28;21008;-50
2022/04/02 10:34:26;;;;;;;1.63;1.63;;;6.00;40.50;;;;;;5255853;28;20971;-50
2022/04/02 10:37:12;;;;;;;1.23;1.23;;;5.90;40.30;;;;;;5257563;28;20444;-48
2022/04/02 10:40:04;;;;;;;1.13;1.10;;;5.80;40.20;;;;;;5251309;28;20436;-49
2022/04/02 10:43:06;;;;;;;6.43;1.53;;;6.00;40.60;;;;;;5246823;28;20902;-49
2022/04/02 10:45:41;;;;;;;1.53;1.43;;;6.20;40.00;;;;;;5254782;28;20440;-48
2022/04/02 10:48:13;;;;;;;1.80;1.73;;;6.30;40.00;;;;;;5253857;28;20502;-49
2022/04/02 10:50:45;;;;;;;3.60;1.60;;;6.30;39.20;;;;;;5255548;28;20433;-49
2022/04/02 10:53:19;;;;;;;1.43;1.33;;;6.00;38.90;;;;;;5253034;28;20435;-50
2022/04/02 10:55:59;;;;;;;10.97;1.50;;;6.10;39.30;;;;;;5253469;28;20451;-49
2022/04/02 10:58:37;;;;;;;1.60;1.57;;;6.20;38.90;;;;;;5250485;28;20488;-51
2022/04/02 11:01:11;;;;;;;2.17;1.50;;;6.60;38.70;;;;;;5254980;28;20468;-49
2022/04/02 11:03:46;;;;;;;2.33;1.73;;;6.80;38.10;;;;;;5247313;28;20773;-48
2022/04/02 11:06:44;;;;;;;2.30;1.60;;;7.00;38.10;;;;;;5248191;28;20467;-52
2022/04/02 11:09:28;;;;;;;2.93;1.40;;;7.00;37.60;;;;;;5252425;28;20964;-48
2022/04/02 11:12:15;;;;;;;2.33;1.80;;;7.00;37.80;;;;;;5251218;28;20850;-49
2022/04/02 11:14:49;;;;;;;2.43;1.43;;;7.00;37.80;;;;;;5247645;28;20802;-50
2022/04/02 11:17:34;;;;;;;0.97;0.97;;;7.30;37.80;;;;;;5244390;28;20544;-51
2022/04/02 11:20:10;;;;;;;4.87;1.90;;;7.70;37.30;;;;;;5256091;28;20437;-50
2022/04/02 11:22:59;;;;;;;5.00;1.90;;;7.80;36.50;;;;;;5248108;28;20446;-50
2022/04/02 11:25:32;;;;;;;2.00;1.27;;;7.70;35.90;;;;;;5248715;28;20465;-50
2022/04/02 11:28:13;;;;;;;8.17;1.43;;;7.80;36.30;;;;;;5261044;28;20558;-52
2022/04/02 11:30:48;;;;;;;3.23;2.37;;;7.80;36.50;;;;;;5244520;28;20466;-52
2022/04/02 11:33:19;;;;;;;4.60;1.70;;;7.30;39.50;;;;;;5251403;28;20466;-52
2022/04/02 11:35:59;;;;;;;2.20;1.07;;;6.90;41.30;;;;;;5264629;28;20499;-51
2022/04/02 11:39:10;;;;;;;4.30;1.77;;;6.60;42.80;;;;;;5246872;28;20464;-49
2022/04/02 11:41:45;;;;;;;4.33;1.50;;;6.30;44.10;;;;;;5247977;28;20928;-51
2022/04/02 11:44:16;;;;;;;7.83;1.57;;;6.30;44.80;;;;;;5256322;28;20551;-51
2022/04/02 11:47:02;;;;;;;1.57;1.00;;;6.30;45.90;;;;;;5246853;28;20471;-52
2022/04/02 11:49:39;;;;;;;3.33;1.67;;;6.50;45.40;;;;;;5248231;28;20487;-51
2022/04/02 11:52:15;;;;;;;1.67;0.97;;;6.70;44.90;;;;;;5257467;28;20434;-50
2022/04/02 11:54:49;;;;;;;1.07;1.00;;;6.80;43.90;;;;;;5252078;28;20524;-53
2022/04/02 11:57:19;;;;;;;1.10;1.10;;;6.80;44.00;;;;;;5255284;28;20597;-52
2022/04/02 11:59:52;;;;;;;3.93;2.27;;;6.80;44.20;;;;;;5253965;28;20525;-51
2022/04/02 12:02:37;;;;;;;6.67;2.23;;;6.70;44.10;;;;;;5256464;28;20188;-51
2022/04/02 12:05:13;;;;;;;3.70;1.97;;;6.60;44.90;;;;;;5249479;28;20440;-49
2022/04/02 12:07:48;;;;;;;3.07;1.53;;;6.50;45.70;;;;;;5255508;28;20461;-49
2022/04/02 12:10:23;;;;;;;3.50;1.53;;;6.10;47.10;;;;;;5248166;28;20511;-48
2022/04/02 12:12:58;;;;;;;4.50;1.70;;;6.00;48.60;;;;;;5254398;28;20412;-50
2022/04/02 12:15:29;;;;;;;1.27;1.27;;;5.60;50.10;;;;;;5244758;28;20921;-49
2022/04/02 12:18:01;;;;;;;1.57;1.47;;;5.50;51.40;;;;;;5244316;28;20465;-47
2022/04/02 12:20:36;;;;;;;1.97;1.33;;;5.30;52.10;;;;;;5259301;28;20772;-47
2022/04/02 12:23:17;;;;;;;1.77;1.63;;;5.10;49.80;;;;;;5262504;28;20493;-50
2022/04/02 12:25:55;;;;;;;1.70;1.07;;;5.10;48.20;;;;;;5249191;28;20439;-50
2022/04/02 12:28:26;;;;;;;2.20;1.50;;;5.00;47.00;;;;;;5256212;28;20574;-51
2022/04/02 12:31:05;;;;;;;2.63;1.17;;;4.90;46.90;;;;;;5250725;28;20428;-50
2022/04/02 12:33:37;;;;;;;3.97;1.30;;;5.10;48.10;;;;;;5251911;28;20432;-49
2022/04/02 12:36:09;;;;;;;2.03;1.77;;;5.30;47.20;;;;;;5253802;28;20936;-48
2022/04/02 12:38:40;;;;;;;13.40;2.07;;;5.40;46.20;;;;;;5247424;28;20484;-51
2022/04/02 12:41:28;;;;;;;2.10;1.47;;;5.70;45.20;;;;;;5255095;28;20432;-48
2022/04/02 12:44:06;;;;;;;1.47;1.30;;;5.80;44.50;;;;;;5251126;28;20457;-49
2022/04/02 12:46:37;;;;;;;1.20;1.20;;;5.90;44.30;;;;;;5260800;28;20463;-55
2022/04/02 12:49:07;;;;;;;3.13;1.40;;;5.80;44.00;;;;;;5262206;28;20811;-50
2022/04/02 12:51:38;;;;;;;1.73;1.30;;;5.80;44.10;;;;;;5261044;28;20510;-50
2022/04/02 12:54:08;;;;;;;1.20;1.10;;;5.70;44.60;;;;;;5254026;28;20174;-50
2022/04/02 12:56:41;;;;;;;3.40;1.37;;;5.50;45.10;;;;;;5259224;28;20281;-48
2022/04/02 12:59:19;;;;;;;4.20;1.60;;;5.30;45.90;;;;;;5256118;28;20197;-50
2022/04/02 13:01:50;;;;;;;5.40;1.37;;;5.10;47.30;;;;;;5250852;28;20431;-47
2022/04/02 13:04:26;;;;;;;1.10;1.10;;;5.00;49.30;;;;;;5253559;28;20486;-48
2022/04/02 13:07:04;;;;;;;3.60;1.47;;;5.10;51.50;;;;;;5256150;28;20455;-48
2022/04/02 13:09:35;;;;;;;1.70;1.60;;;4.90;52.90;;;;;;5260725;28;20449;-49
2022/04/02 13:12:09;;;;;;;1.67;1.57;;;4.70;53.90;;;;;;5260374;28;20562;-49
2022/04/02 13:14:45;;;;;;;2.73;1.63;;;4.80;53.80;;;;;;5264420;28;20460;-49
2022/04/02 13:17:18;;;;;;;3.60;1.13;;;4.80;53.50;;;;;;5252638;28;20428;-48
2022/04/02 13:22:57;;;;;;;10.80;1.50;;;5.00;50.20;;;;;;5250898;28;20996;-49
2022/04/02 13:25:29;;;;;;;1.13;1.13;;;5.10;49.40;;;;;;5259915;28;20476;-53
2022/04/02 13:28:23;;;;;;;1.20;1.20;;;5.30;48.70;;;;;;5273422;28;20462;-49
2022/04/02 13:30:57;;;;;;;1.00;1.00;;;5.50;48.00;;;;;;5259349;28;20756;-48
2022/04/02 13:33:50;;;;;;;2.83;1.27;;;5.50;47.30;;;;;;5259511;28;20504;-48
2022/04/02 13:36:41;;;;;;;1.23;1.23;;;5.40;46.70;;;;;;5253188;28;20513;-50
2022/04/02 13:39:16;;;;;;;1.43;1.30;;;5.40;46.60;;;;;;5258025;28;20961;-47
2022/04/02 13:41:52;;;;;;;5.93;1.30;;;5.50;46.40;;;;;;5258129;28;20534;-48
2022/04/02 13:44:24;;;;;;;1.60;1.23;;;5.60;46.20;;;;;;5249685;28;20420;-48
2022/04/02 13:46:56;;;;;;;1.37;1.20;;;5.70;45.90;;;;;;5259629;28;20458;-51